createdAt,value
2023-03-26T00:01:36.221Z,98053.13
2023-03-26T00:04:06.544Z,98050.75
2023-03-26T00:06:39.041Z,98052.13
2023-03-26T00:09:09.762Z,98055.66
2023-03-26T00:11:36.464Z,98057.34
2023-03-26T00:14:03.770Z,98060.16
2023-03-26T00:16:32.375Z,98067.53
2023-03-26T00:19:02.678Z,98063.94
2023-03-26T00:21:30.888Z,98064.38
2023-03-26T00:24:04.159Z,98070.00
2023-03-26T00:26:35.246Z,98067.31
2023-03-26T00:29:03.476Z,98067.53
2023-03-26T00:31:31.207Z,98062.59
2023-03-26T00:33:57.870Z,98055.00
2023-03-26T00:36:26.481Z,98065.16
2023-03-26T00:38:54.306Z,98067.06
2023-03-26T00:41:25.601Z,98072.53
2023-03-26T00:43:58.222Z,98071.09
2023-03-26T00:46:31.098Z,98065.56
2023-03-26T00:48:59.715Z,98068.13
2023-03-26T00:51:27.826Z,98062.84
2023-03-26T00:53:54.956Z,98066.94
2023-03-26T00:56:21.605Z,98065.75
2023-03-26T00:58:50.046Z,98064.09
2023-03-26T01:01:27.166Z,98073.34
2023-03-26T01:04:07.409Z,98060.94
2023-03-26T01:06:41.290Z,98052.91
2023-03-26T01:09:17.430Z,98053.84
2023-03-26T01:11:45.350Z,98052.19
2023-03-26T01:14:16.687Z,98042.00
2023-03-26T01:17:00.594Z,98043.09
2023-03-26T01:19:45.373Z,98051.44
2023-03-26T01:22:23.153Z,98046.63
2023-03-26T01:24:53.726Z,98045.13
2023-03-26T01:27:58.797Z,98045.97
2023-03-26T01:30:41.430Z,98041.53
2023-03-26T01:33:29.941Z,98032.56
2023-03-26T01:36:42.540Z,98024.06
2023-03-26T01:39:25.156Z,98021.72
2023-03-26T01:41:57.509Z,98027.25
2023-03-26T01:45:15.348Z,98025.19
2023-03-26T01:47:43.886Z,98023.09
2023-03-26T01:50:11.253Z,98019.25
2023-03-26T01:52:37.970Z,98007.63
2023-03-26T01:55:06.701Z,98013.84
2023-03-26T01:57:42.877Z,98003.69
2023-03-26T02:00:27.700Z,97999.84
2023-03-26T02:03:22.884Z,98002.03
2023-03-26T02:05:58.166Z,98002.34
2023-03-26T02:08:41.158Z,97994.63
2023-03-26T02:11:13.120Z,97991.50
2023-03-26T02:13:44.325Z,97985.25
2023-03-26T02:16:16.167Z,97983.44
2023-03-26T02:18:45.500Z,97984.28
2023-03-26T02:21:22.401Z,97978.69
2023-03-26T02:24:03.028Z,97981.50
2023-03-26T02:26:33.237Z,97978.53
2023-03-26T02:29:01.627Z,97977.22
2023-03-26T02:31:28.348Z,97969.13
2023-03-26T02:33:55.597Z,97961.81
2023-03-26T02:36:27.169Z,97961.78
2023-03-26T02:38:57.943Z,97957.94
2023-03-26T02:41:24.803Z,97966.56
2023-03-26T02:43:51.774Z,97957.78
2023-03-26T02:46:21.253Z,97952.56
2023-03-26T02:48:48.605Z,97961.38
2023-03-26T02:51:18.033Z,97949.56
2023-03-26T02:53:44.669Z,97949.91
2023-03-26T02:56:12.496Z,97939.66
2023-03-26T02:58:39.127Z,97933.44
2023-03-26T03:01:05.810Z,97934.03
2023-03-26T03:03:35.256Z,97924.97
2023-03-26T03:06:02.080Z,97925.28
2023-03-26T03:08:29.235Z,97918.16
2023-03-26T03:10:58.778Z,97919.94
2023-03-26T03:13:25.451Z,97913.69
2023-03-26T03:15:52.692Z,97919.03
2023-03-26T03:18:19.492Z,97914.56
2023-03-26T03:20:46.735Z,97907.09
2023-03-26T03:23:13.934Z,97909.44
2023-03-26T03:25:41.073Z,97910.69
2023-03-26T03:28:09.101Z,97907.28
2023-03-26T03:30:36.027Z,97903.41
2023-03-26T03:33:03.018Z,97901.56
2023-03-26T03:35:30.346Z,97900.03
2023-03-26T03:37:57.961Z,97901.44
2023-03-26T03:40:26.726Z,97898.31
2023-03-26T03:42:53.308Z,97890.16
2023-03-26T03:45:19.926Z,97877.06
2023-03-26T03:47:46.504Z,97882.19
2023-03-26T03:50:13.136Z,97881.66
2023-03-26T03:52:40.103Z,97884.53
2023-03-26T03:55:07.077Z,97886.06
2023-03-26T03:57:34.524Z,97876.50
2023-03-26T04:00:01.330Z,97883.16
2023-03-26T04:02:34.387Z,97873.69
2023-03-26T04:05:02.704Z,97869.44
2023-03-26T04:07:31.127Z,97868.88
2023-03-26T04:10:03.272Z,97857.81
2023-03-26T04:12:30.930Z,97852.06
2023-03-26T04:14:59.025Z,97849.84
2023-03-26T04:17:26.354Z,97854.88
2023-03-26T04:19:54.749Z,97853.03
2023-03-26T04:22:22.428Z,97846.09
2023-03-26T04:24:50.038Z,97847.75
2023-03-26T04:27:21.359Z,97837.75
2023-03-26T04:29:49.641Z,97827.06
2023-03-26T04:32:30.045Z,97821.53
2023-03-26T04:35:00.542Z,97827.72
2023-03-26T04:37:47.635Z,97831.13
2023-03-26T04:40:21.909Z,97827.66
2023-03-26T04:42:48.654Z,97822.28
2023-03-26T04:45:22.329Z,97818.19
2023-03-26T04:47:50.183Z,97818.81
2023-03-26T04:50:17.173Z,97820.56
2023-03-26T04:52:45.282Z,97811.50
2023-03-26T04:55:27.812Z,97804.81
2023-03-26T04:57:57.656Z,97807.91
2023-03-26T05:00:24.642Z,97800.81
2023-03-26T05:02:55.714Z,97789.25
2023-03-26T05:05:22.569Z,97788.84
2023-03-26T05:07:49.165Z,97795.69
2023-03-26T05:10:16.699Z,97783.78
2023-03-26T05:12:43.627Z,97773.66
2023-03-26T05:15:11.630Z,97773.47
2023-03-26T05:17:41.400Z,97770.56
2023-03-26T05:20:30.996Z,97759.13
2023-03-26T05:22:57.949Z,97754.53
2023-03-26T05:25:24.632Z,97751.72
2023-03-26T05:27:51.254Z,97745.88
2023-03-26T05:30:21.000Z,97740.09
2023-03-26T05:32:49.598Z,97739.03
2023-03-26T05:35:17.287Z,97731.56
2023-03-26T05:37:45.463Z,97728.22
2023-03-26T05:40:14.956Z,97718.50
2023-03-26T05:42:41.955Z,97717.47
2023-03-26T05:45:11.284Z,97714.44
2023-03-26T05:47:38.431Z,97702.28
2023-03-26T05:50:07.350Z,97709.72
2023-03-26T05:52:33.966Z,97712.25
2023-03-26T05:55:00.544Z,97704.16
2023-03-26T05:57:30.590Z,97699.53
2023-03-26T05:59:57.210Z,97701.19
2023-03-26T06:02:24.204Z,97695.16
2023-03-26T06:04:50.995Z,97689.69
2023-03-26T06:07:19.592Z,97687.81
2023-03-26T06:09:46.313Z,97691.16
2023-03-26T06:12:13.164Z,97679.88
2023-03-26T06:14:42.720Z,97677.16
2023-03-26T06:17:10.458Z,97674.19
2023-03-26T06:19:37.604Z,97672.59
2023-03-26T06:22:05.418Z,97666.66
2023-03-26T06:24:33.111Z,97660.47
2023-03-26T06:26:59.739Z,97662.25
2023-03-26T06:29:26.898Z,97646.84
2023-03-26T06:31:53.544Z,97650.97
2023-03-26T06:34:20.457Z,97649.72
2023-03-26T06:36:48.672Z,97648.00
2023-03-26T06:39:15.856Z,97644.78
2023-03-26T06:41:42.479Z,97647.47
2023-03-26T06:44:09.289Z,97638.75
2023-03-26T06:46:36.254Z,97638.88
2023-03-26T06:49:03.114Z,97636.78
2023-03-26T06:51:29.737Z,97632.69
2023-03-26T06:53:56.463Z,97627.28
2023-03-26T06:56:23.023Z,97628.19
2023-03-26T06:58:52.218Z,97625.78
2023-03-26T07:01:18.893Z,97612.72
2023-03-26T07:03:45.767Z,97607.94
2023-03-26T07:06:12.431Z,97604.69
2023-03-26T07:08:39.027Z,97599.78
2023-03-26T07:11:06.036Z,97597.53
2023-03-26T07:13:32.622Z,97596.91
2023-03-26T07:15:59.199Z,97588.06
2023-03-26T07:18:25.972Z,97587.63
2023-03-26T07:20:53.422Z,97597.59
2023-03-26T07:23:21.223Z,97593.56
2023-03-26T07:25:49.579Z,97595.53
2023-03-26T07:28:42.006Z,97606.94
2023-03-26T07:31:34.754Z,97591.81
2023-03-26T07:34:17.750Z,97591.31
2023-03-26T07:37:02.222Z,97587.78
2023-03-26T07:39:45.554Z,97586.88
2023-03-26T07:42:42.388Z,97574.09
2023-03-26T07:45:39.424Z,97573.50
2023-03-26T07:48:29.801Z,97570.16
2023-03-26T07:50:58.456Z,97572.06
2023-03-26T07:53:25.334Z,97568.59
2023-03-26T07:56:16.752Z,97566.91
2023-03-26T07:58:49.863Z,97566.13
2023-03-26T08:01:43.339Z,97556.75
2023-03-26T08:04:50.029Z,97559.41
2023-03-26T08:07:50.656Z,97554.28
2023-03-26T08:10:27.330Z,97553.44
2023-03-26T08:13:19.764Z,97548.06
2023-03-26T08:16:12.490Z,97556.00
2023-03-26T08:19:01.789Z,97547.28
2023-03-26T08:21:51.511Z,97548.56
2023-03-26T08:24:25.157Z,97545.97
2023-03-26T08:27:21.304Z,97545.88
2023-03-26T08:30:17.769Z,97547.91
2023-03-26T08:33:00.672Z,97536.75
2023-03-26T08:35:28.249Z,97540.78
2023-03-26T08:37:54.894Z,97540.44
2023-03-26T08:40:54.720Z,97537.56
2023-03-26T08:43:42.528Z,97530.34
2023-03-26T08:46:51.328Z,97535.88
2023-03-26T08:49:59.577Z,97533.44
2023-03-26T08:53:37.444Z,97528.50
2023-03-26T08:56:24.335Z,97523.50
2023-03-26T08:59:18.882Z,97521.50
2023-03-26T09:02:11.096Z,97518.88
2023-03-26T09:05:24.500Z,97503.44
2023-03-26T09:08:08.422Z,97499.28
2023-03-26T09:10:51.803Z,97494.97
2023-03-26T09:14:04.611Z,97488.53
2023-03-26T09:17:05.330Z,97477.97
2023-03-26T09:20:02.671Z,97476.19
2023-03-26T09:23:13.942Z,97477.53
2023-03-26T09:26:04.750Z,97483.84
2023-03-26T09:29:12.174Z,97489.50
2023-03-26T09:32:07.420Z,97490.59
2023-03-26T09:35:08.191Z,97473.34
2023-03-26T09:38:33.432Z,97464.09
2023-03-26T09:41:33.895Z,97464.56
2023-03-26T09:44:29.471Z,97458.47
2023-03-26T09:46:56.241Z,97456.72
2023-03-26T09:49:42.082Z,97455.63
2023-03-26T09:52:25.366Z,97460.53
2023-03-26T09:55:20.090Z,97461.69
2023-03-26T09:58:25.663Z,97463.25
2023-03-26T10:01:12.413Z,97464.72
2023-03-26T10:03:58.270Z,97453.47
2023-03-26T10:06:53.046Z,97456.94
2023-03-26T10:09:52.044Z,97455.84
2023-03-26T10:12:46.206Z,97450.94
2023-03-26T10:15:26.662Z,97453.56
2023-03-26T10:18:29.886Z,97454.78
2023-03-26T10:21:28.675Z,97445.13
2023-03-26T10:24:27.126Z,97439.19
2023-03-26T10:27:12.680Z,97429.25
2023-03-26T10:29:54.028Z,97432.94
2023-03-26T10:33:15.271Z,97423.81
2023-03-26T10:35:56.498Z,97428.78
2023-03-26T10:38:53.624Z,97418.53
2023-03-26T10:41:48.298Z,97431.88
2023-03-26T10:44:43.502Z,97419.72
2023-03-26T10:47:37.001Z,97423.91
2023-03-26T10:50:47.418Z,97408.28
2023-03-26T10:53:44.749Z,97403.06
2023-03-26T10:56:28.778Z,97402.47
2023-03-26T10:58:56.903Z,97392.97
2023-03-26T11:02:04.826Z,97382.50
2023-03-26T11:04:55.713Z,97384.00
2023-03-26T11:07:59.693Z,97391.25
2023-03-26T11:11:01.398Z,97381.38
2023-03-26T11:13:51.337Z,97389.69
2023-03-26T11:16:56.171Z,97392.59
2023-03-26T11:19:35.835Z,97389.53
2023-03-26T11:22:17.499Z,97383.25
2023-03-26T11:25:32.689Z,97395.03
2023-03-26T11:28:23.620Z,97382.25
2023-03-26T11:31:07.851Z,97389.88
2023-03-26T11:33:45.597Z,97386.47
2023-03-26T11:36:22.627Z,97383.00
2023-03-26T11:38:57.626Z,97374.88
2023-03-26T11:41:27.953Z,97368.00
2023-03-26T11:44:00.010Z,97363.31
2023-03-26T11:46:27.176Z,97365.06
2023-03-26T11:48:59.371Z,97361.34
2023-03-26T11:51:37.783Z,97361.59
2023-03-26T11:54:07.910Z,97356.53
2023-03-26T11:57:04.713Z,97351.31
2023-03-26T11:59:57.661Z,97352.22
2023-03-26T12:02:35.557Z,97351.28
2023-03-26T12:05:19.868Z,97350.22
2023-03-26T12:08:00.607Z,97351.22
2023-03-26T12:10:39.707Z,97341.59
2023-03-26T12:13:29.433Z,97340.06
2023-03-26T12:16:18.932Z,97336.28
2023-03-26T12:18:58.317Z,97337.94
2023-03-26T12:21:25.137Z,97327.09
2023-03-26T12:23:58.902Z,97325.50
2023-03-26T12:26:41.158Z,97317.28
2023-03-26T12:29:21.010Z,97305.75
2023-03-26T12:31:55.655Z,97308.44
2023-03-26T12:34:35.079Z,97304.72
2023-03-26T12:37:03.993Z,97305.50
2023-03-26T12:40:06.600Z,97300.38
2023-03-26T12:44:45.936Z,97303.16
2023-03-26T12:45:30.869Z,97294.03
2023-03-26T12:48:04.295Z,97287.00
2023-03-26T12:50:57.438Z,97295.84
2023-03-26T12:54:05.478Z,97296.50
2023-03-26T12:57:12.388Z,97282.84
2023-03-26T13:00:21.335Z,97274.25
2023-03-26T13:03:09.642Z,97276.16
2023-03-26T13:06:00.345Z,97276.81
2023-03-26T13:08:49.368Z,97271.28
2023-03-26T13:11:53.761Z,97265.59
2023-03-26T13:15:17.726Z,97259.63
2023-03-26T13:18:19.565Z,97251.84
2023-03-26T13:20:56.920Z,97254.06
2023-03-26T13:23:36.030Z,97251.09
2023-03-26T13:26:35.581Z,97251.84
2023-03-26T13:29:20.858Z,97245.75
2023-03-26T13:32:12.884Z,97252.69
2023-03-26T13:34:57.534Z,97231.81
2023-03-26T13:38:09.972Z,97213.28
2023-03-26T13:41:07.138Z,97209.66
2023-03-26T13:43:57.876Z,97198.59
2023-03-26T13:46:35.424Z,97204.22
2023-03-26T13:49:07.925Z,97193.84
2023-03-26T13:51:55.378Z,97199.19
2023-03-26T13:54:47.246Z,97191.91
2023-03-26T13:57:33.142Z,97192.00
2023-03-26T14:00:16.376Z,97188.31
2023-03-26T14:02:47.563Z,97192.94
2023-03-26T14:05:31.393Z,97193.84
2023-03-26T14:08:10.386Z,97185.44
2023-03-26T14:10:53.910Z,97191.56
2023-03-26T14:13:39.684Z,97193.94
2023-03-26T14:16:21.612Z,97198.00
2023-03-26T14:19:50.065Z,97197.22
2023-03-26T14:22:54.378Z,97198.03
2023-03-26T14:26:06.641Z,97203.97
2023-03-26T14:29:16.702Z,97236.91
2023-03-26T14:32:15.083Z,97232.56
2023-03-26T14:35:26.133Z,97223.19
2023-03-26T14:38:37.964Z,97225.06
2023-03-26T14:41:24.956Z,97224.66
2023-03-26T14:44:48.114Z,97230.66
2023-03-26T14:47:21.590Z,97228.34
2023-03-26T14:50:31.467Z,97246.94
2023-03-26T14:53:02.235Z,97242.22
2023-03-26T14:56:24.825Z,97220.28
2023-03-26T14:59:18.537Z,97234.75
2023-03-26T15:02:16.100Z,97241.00
2023-03-26T15:05:24.161Z,97241.88
2023-03-26T15:08:17.044Z,97238.59
2023-03-26T15:11:09.327Z,97248.09
2023-03-26T15:14:36.748Z,97243.84
2023-03-26T15:17:48.548Z,97251.41
2023-03-26T15:21:01.782Z,97244.50
2023-03-26T15:24:12.767Z,97254.00
2023-03-26T15:27:13.687Z,97263.38
2023-03-26T15:30:30.037Z,97254.41
2023-03-26T15:33:46.755Z,97262.16
2023-03-26T15:37:15.048Z,97285.97
2023-03-26T15:40:22.081Z,97290.94
2023-03-26T15:42:54.575Z,97298.22
2023-03-26T15:45:41.014Z,97293.56
2023-03-26T15:48:11.566Z,97300.44
2023-03-26T15:51:28.738Z,97295.16
2023-03-26T15:54:05.750Z,97290.97
2023-03-26T15:56:48.885Z,97295.63
2023-03-26T15:59:39.917Z,97287.50
2023-03-26T16:02:07.491Z,97290.81
2023-03-26T16:04:50.693Z,97298.34
2023-03-26T16:08:02.679Z,97289.19
2023-03-26T16:10:38.173Z,97280.38
2023-03-26T16:13:19.638Z,97285.28
2023-03-26T16:15:58.388Z,97278.91
2023-03-26T16:18:37.012Z,97291.56
2023-03-26T16:21:32.810Z,97284.03
2023-03-26T16:24:02.798Z,97287.25
2023-03-26T16:26:40.530Z,97297.34
2023-03-26T16:29:25.546Z,97298.81
2023-03-26T16:32:10.949Z,97302.16
2023-03-26T16:35:14.975Z,97303.00
2023-03-26T16:37:50.515Z,97309.94
2023-03-26T16:40:20.730Z,97305.75
2023-03-26T16:43:30.197Z,97311.91
2023-03-26T16:46:24.617Z,97302.66
2023-03-26T16:49:17.021Z,97308.16
2023-03-26T16:51:53.438Z,97309.66
2023-03-26T16:54:43.737Z,97311.38
2023-03-26T16:57:27.816Z,97318.41
2023-03-26T17:00:15.048Z,97326.16
2023-03-26T17:03:28.064Z,97331.78
2023-03-26T17:05:57.842Z,97334.25
2023-03-26T17:08:58.351Z,97339.38
2023-03-26T17:11:43.731Z,97329.81
2023-03-26T17:14:40.624Z,97335.72
2023-03-26T17:17:59.793Z,97340.34
2023-03-26T17:20:39.939Z,97347.38
2023-03-26T17:23:31.361Z,97350.38
2023-03-26T17:26:23.780Z,97350.09
2023-03-26T17:29:28.244Z,97355.84
2023-03-26T17:32:15.020Z,97363.41
2023-03-26T17:34:50.881Z,97361.16
2023-03-26T17:37:18.729Z,97371.66
2023-03-26T17:39:46.704Z,97372.91
2023-03-26T17:42:35.325Z,97365.34
2023-03-26T17:45:15.815Z,97368.97
2023-03-26T17:47:53.606Z,97370.69
2023-03-26T17:50:27.443Z,97370.06
2023-03-26T17:53:04.725Z,97368.81
2023-03-26T17:55:36.464Z,97370.53
2023-03-26T17:58:07.251Z,97372.38
2023-03-26T18:00:44.698Z,97382.25
2023-03-26T18:03:23.753Z,97371.50
2023-03-26T18:06:04.048Z,97382.63
2023-03-26T18:08:57.939Z,97378.09
2023-03-26T18:11:43.911Z,97380.72
2023-03-26T18:14:34.842Z,97388.47
2023-03-26T18:17:02.297Z,97384.97
2023-03-26T18:19:31.732Z,97386.59
2023-03-26T18:22:04.378Z,97382.22
2023-03-26T18:24:40.307Z,97377.38
2023-03-26T18:27:14.686Z,97387.72
2023-03-26T18:29:56.491Z,97395.53
2023-03-26T18:32:33.263Z,97396.69
2023-03-26T18:35:15.398Z,97400.19
2023-03-26T18:37:44.161Z,97401.41
2023-03-26T18:40:23.364Z,97400.50
2023-03-26T18:42:53.675Z,97400.06
2023-03-26T18:45:23.359Z,97405.69
2023-03-26T18:47:55.803Z,97408.78
2023-03-26T18:50:30.911Z,97414.16
2023-03-26T18:53:00.377Z,97414.97
2023-03-26T18:55:29.771Z,97418.06
2023-03-26T18:57:57.233Z,97418.34
2023-03-26T19:00:28.488Z,97423.19
2023-03-26T19:03:05.863Z,97420.19
2023-03-26T19:05:37.131Z,97419.97
2023-03-26T19:08:06.221Z,97418.88
2023-03-26T19:10:33.435Z,97417.19
2023-03-26T19:13:04.134Z,97432.38
2023-03-26T19:15:33.630Z,97437.72
2023-03-26T19:18:07.219Z,97450.91
2023-03-26T19:20:48.183Z,97440.66
2023-03-26T19:23:19.101Z,97448.53
2023-03-26T19:25:54.634Z,97451.34
2023-03-26T19:28:34.558Z,97453.06
2023-03-26T19:31:32.969Z,97459.50
2023-03-26T19:34:14.765Z,97459.75
2023-03-26T19:37:01.947Z,97459.50
2023-03-26T19:39:42.535Z,97459.13
2023-03-26T19:42:43.899Z,97456.34
2023-03-26T19:45:19.417Z,97465.25
2023-03-26T19:47:54.357Z,97472.84
2023-03-26T19:50:30.433Z,97470.75
2023-03-26T19:53:21.976Z,97474.78
2023-03-26T19:56:13.063Z,97480.00
2023-03-26T19:58:41.534Z,97482.19
2023-03-26T20:01:19.644Z,97501.28
2023-03-26T20:03:49.243Z,97484.19
2023-03-26T20:06:23.679Z,97496.56
2023-03-26T20:08:54.835Z,97493.75
2023-03-26T20:11:33.117Z,97495.94
2023-03-26T20:14:01.462Z,97508.50
2023-03-26T20:16:34.156Z,97513.72
2023-03-26T20:19:04.307Z,97513.22
2023-03-26T20:21:34.508Z,97517.06
2023-03-26T20:24:01.820Z,97520.22
2023-03-26T20:26:29.333Z,97528.41
2023-03-26T20:28:56.161Z,97532.09
2023-03-26T20:31:26.647Z,97533.31
2023-03-26T20:33:54.363Z,97538.69
2023-03-26T20:36:33.214Z,97554.09
2023-03-26T20:39:08.187Z,97550.97
2023-03-26T20:41:40.134Z,97567.31
2023-03-26T20:44:17.126Z,97565.53
2023-03-26T20:46:45.640Z,97572.53
2023-03-26T20:49:14.665Z,97581.56
2023-03-26T20:51:42.040Z,97573.41
2023-03-26T20:54:18.942Z,97584.56
2023-03-26T20:56:47.515Z,97590.03
2023-03-26T20:59:26.023Z,97586.63
2023-03-26T21:01:54.530Z,97593.88
2023-03-26T21:04:22.714Z,97593.56
2023-03-26T21:06:49.569Z,97599.13
2023-03-26T21:09:23.358Z,97602.03
2023-03-26T21:12:05.439Z,97609.47
2023-03-26T21:14:40.112Z,97615.97
2023-03-26T21:17:15.358Z,97620.56
2023-03-26T21:19:46.429Z,97624.31
2023-03-26T21:22:35.760Z,97625.84
2023-03-26T21:25:11.985Z,97635.25
2023-03-26T21:28:39.321Z,97644.78
2023-03-26T21:31:19.809Z,97651.59
2023-03-26T21:33:49.104Z,97661.72
2023-03-26T21:36:19.603Z,97661.41
2023-03-26T21:38:47.000Z,97675.88
2023-03-26T21:41:24.357Z,97677.00
2023-03-26T21:43:51.360Z,97683.03
2023-03-26T21:46:18.606Z,97684.03
2023-03-26T21:48:47.680Z,97687.41
2023-03-26T21:51:14.907Z,97694.56
2023-03-26T21:53:42.728Z,97693.66
2023-03-26T21:56:35.349Z,97701.66
2023-03-26T21:59:27.269Z,97705.22
2023-03-26T22:02:23.237Z,97714.94
2023-03-26T22:05:21.446Z,97728.34
2023-03-26T22:07:56.432Z,97728.09
2023-03-26T22:10:23.605Z,97731.00
2023-03-26T22:12:50.744Z,97739.22
2023-03-26T22:15:18.330Z,97741.25
2023-03-26T22:17:53.657Z,97739.13
2023-03-26T22:20:24.787Z,97752.59
2023-03-26T22:22:53.162Z,97752.53
2023-03-26T22:25:21.741Z,97764.13
2023-03-26T22:27:50.678Z,97776.91
2023-03-26T22:30:18.821Z,97780.63
2023-03-26T22:32:45.713Z,97786.16
2023-03-26T22:35:16.978Z,97795.78
2023-03-26T22:37:43.771Z,97798.97
2023-03-26T22:40:17.775Z,97806.56
2023-03-26T22:42:44.762Z,97818.97
2023-03-26T22:45:12.313Z,97819.94
2023-03-26T22:47:40.775Z,97817.31
2023-03-26T22:50:09.146Z,97833.84
2023-03-26T22:52:36.739Z,97833.47
2023-03-26T22:55:05.153Z,97838.28
2023-03-26T22:57:31.910Z,97843.31
2023-03-26T23:00:07.581Z,97846.63
2023-03-26T23:02:34.215Z,97856.06
2023-03-26T23:05:01.617Z,97860.88
2023-03-26T23:07:28.507Z,97869.88
2023-03-26T23:09:55.138Z,97873.75
2023-03-26T23:12:21.717Z,97891.22
2023-03-26T23:14:52.174Z,97889.84
2023-03-26T23:17:19.465Z,97903.69
2023-03-26T23:19:46.644Z,97908.59
2023-03-26T23:22:13.432Z,97902.53
2023-03-26T23:24:40.115Z,97908.72
2023-03-26T23:27:07.018Z,97912.88
2023-03-26T23:29:34.223Z,97924.94
2023-03-26T23:32:01.135Z,97930.88
2023-03-26T23:34:27.775Z,97923.88
2023-03-26T23:36:54.412Z,97928.09
2023-03-26T23:39:21.175Z,97947.41
2023-03-26T23:41:47.963Z,97945.38
2023-03-26T23:44:16.841Z,97950.22
2023-03-26T23:46:44.058Z,97959.53
2023-03-26T23:49:11.982Z,97963.78
2023-03-26T23:51:38.658Z,97976.06
2023-03-26T23:54:05.392Z,97970.19
2023-03-26T23:56:32.112Z,97970.19
2023-03-26T23:58:59.251Z,97984.47
